Time;durP1;ratioP1;P1;durP2;ratioP2;P2;SDS_P1;SDS_P2;PMS_P1;PMS_P2;Temp;Humidity;BMP_temperature;BMP_pressure;BME280_temperature;BME280_humidity;BME280_pressure;Samples;Min_cycle;Max_cycle;Signal;HPM_P1;HPM_P2
2023/08/25 00:01:17;;;;;;;0.00;0.00;;;;;;;28.38;59.67;100938.63;5030541;28;20038;-65
2023/08/25 00:03:43;;;;;;;0.00;0.00;;;;;;;28.62;59.46;100940.69;5030401;28;20168;-65
2023/08/25 00:06:09;;;;;;;0.00;0.00;;;;;;;28.58;58.84;100943.34;5030466;28;20061;-65
2023/08/25 00:08:35;;;;;;;0.00;0.00;;;;;;;28.52;59.18;100943.88;5012609;28;20124;-64
2023/08/25 00:11:00;;;;;;;0.00;0.00;;;;;;;28.60;59.10;100951.28;5030424;28;20068;-66
2023/08/25 00:13:26;;;;;;;0.00;0.00;;;;;;;28.43;59.79;100945.91;5030816;28;20112;-66
2023/08/25 00:15:51;;;;;;;0.00;0.00;;;;;;;28.31;60.45;100952.22;5030172;28;20041;-65
2023/08/25 00:18:16;;;;;;;0.00;0.00;;;;;;;28.48;59.76;100949.28;5030450;28;20041;-65
2023/08/25 00:20:42;;;;;;;0.00;0.00;;;;;;;28.52;59.66;100954.94;5030165;28;20036;-66
2023/08/25 00:23:08;;;;;;;0.00;0.00;;;;;;;28.53;59.89;100949.06;5031743;28;20041;-65
2023/08/25 00:25:33;;;;;;;0.00;0.00;;;;;;;28.32;60.43;100951.09;5050471;28;20099;-65
2023/08/25 00:27:59;;;;;;;0.00;0.00;;;;;;;28.45;60.54;100949.97;5049960;28;20029;-65
2023/08/25 00:30:25;;;;;;;0.00;0.00;;;;;;;28.61;59.67;100950.16;5049874;28;20447;-65
2023/08/25 00:32:50;;;;;;;0.00;0.00;;;;;;;28.53;59.92;100946.31;5049900;28;20247;-66
2023/08/25 00:35:15;;;;;;;0.00;0.00;;;;;;;28.53;59.81;100951.84;5049885;28;20025;-66
2023/08/25 00:37:41;;;;;;;0.00;0.00;;;;;;;28.44;60.03;100953.09;5056268;28;20037;-65
2023/08/25 00:40:07;;;;;;;0.00;0.00;;;;;;;28.44;59.63;100948.34;5069753;28;20044;-65
2023/08/25 00:42:36;;;;;;;0.00;0.00;;;;;;;28.58;59.25;100940.56;5070000;28;20377;-65
2023/08/25 00:45:02;;;;;;;0.00;0.00;;;;;;;28.59;59.12;100936.66;5054116;28;20064;-66
2023/08/25 00:47:27;;;;;;;0.00;0.00;;;;;;;28.28;60.28;100941.06;5049674;28;20568;-66
2023/08/25 00:49:54;;;;;;;0.00;0.00;;;;;;;28.57;59.28;100952.78;5050268;28;20418;-65
2023/08/25 00:52:21;;;;;;;0.00;0.00;;;;;;;28.48;60.21;100956.78;5049786;28;20036;-65
2023/08/25 00:54:49;;;;;;;0.00;0.00;;;;;;;28.43;60.53;100951.44;5049723;28;20041;-65
2023/08/25 00:57:15;;;;;;;0.00;0.00;;;;;;;28.57;59.63;100946.44;5049722;28;20033;-65
2023/08/25 00:59:41;;;;;;;0.00;0.00;;;;;;;28.59;60.01;100950.50;5049665;28;20086;-64
2023/08/25 01:02:07;;;;;;;0.00;0.00;;;;;;;28.47;59.95;100958.72;5035688;28;20384;-65
2023/08/25 01:04:33;;;;;;;0.00;0.00;;;;;;;28.31;61.07;100960.53;5054157;28;20033;-66
2023/08/25 01:06:58;;;;;;;0.00;0.00;;;;;;;28.56;59.77;100959.47;5053607;28;20040;-65
2023/08/25 01:09:25;;;;;;;0.00;0.00;;;;;;;28.54;59.98;100969.22;5053577;28;20044;-65
2023/08/25 01:12:00;;;;;;;0.00;0.00;;;;;;;28.54;60.62;100967.28;5053755;28;20029;-65
2023/08/25 01:14:30;;;;;;;0.00;0.00;;;;;;;28.29;61.38;100962.00;5053705;28;20036;-66
2023/08/25 01:17:14;;;;;;;0.00;0.00;;;;;;;28.38;60.30;100963.53;5054102;28;20036;-64
2023/08/25 01:19:53;;;;;;;0.00;0.00;;;;;;;28.39;60.21;100958.81;5054082;28;20117;-65
2023/08/25 01:22:25;;;;;;;0.00;0.00;;;;;;;28.48;60.60;100956.78;5053309;28;20048;-66
2023/08/25 01:24:54;;;;;;;0.00;0.00;;;;;;;28.48;60.23;100965.06;5053130;28;20037;-64
2023/08/25 01:27:20;;;;;;;0.00;0.00;;;;;;;28.45;60.00;100960.22;5053082;28;20033;-65
2023/08/25 01:29:45;;;;;;;0.00;0.00;;;;;;;28.49;60.17;100961.16;5053106;28;20079;-66
2023/08/25 01:32:11;;;;;;;0.00;0.00;;;;;;;28.37;61.00;100963.88;5053220;28;20032;-65
2023/08/25 01:34:37;;;;;;;0.00;0.00;;;;;;;28.53;60.05;100957.38;5060783;28;20059;-65
2023/08/25 01:37:18;;;;;;;0.00;0.00;;;;;;;28.33;60.65;100961.00;5073074;28;20121;-66
2023/08/25 01:39:47;;;;;;;0.00;0.00;;;;;;;28.28;60.84;100950.16;5054310;28;20082;-65
2023/08/25 01:42:15;;;;;;;0.00;0.00;;;;;;;28.37;60.11;100963.88;5050246;28;20040;-66
2023/08/25 01:44:42;;;;;;;0.00;0.00;;;;;;;28.36;59.64;100954.75;5060378;28;20426;-67
2023/08/25 01:47:09;;;;;;;0.00;0.00;;;;;;;28.36;59.97;100948.44;5072691;28;20093;-65
2023/08/25 01:49:37;;;;;;;0.00;0.00;;;;;;;28.37;60.43;100956.41;5073530;28;20074;-68
2023/08/25 01:52:03;;;;;;;0.00;0.00;;;;;;;28.25;60.81;100950.00;5072922;28;20528;-64
2023/08/25 01:54:30;;;;;;;0.00;0.00;;;;;;;28.33;60.35;100962.94;5072872;28;20041;-65
2023/08/25 01:56:55;;;;;;;0.00;0.00;;;;;;;28.36;60.56;100953.97;5073010;28;20067;-65
2023/08/25 01:59:21;;;;;;;0.00;0.00;;;;;;;28.29;60.84;100959.25;5050260;28;20554;-65
2023/08/25 02:01:46;;;;;;;0.00;0.00;;;;;;;28.12;60.84;100960.22;5053120;28;20504;-65
2023/08/25 02:04:12;;;;;;;0.00;0.00;;;;;;;28.35;60.08;100950.41;5052802;28;20604;-65
2023/08/25 02:06:37;;;;;;;0.00;0.00;;;;;;;28.25;60.04;100961.88;5052783;28;20547;-65
2023/08/25 02:09:03;;;;;;;0.00;0.00;;;;;;;28.24;60.86;100960.28;5052477;28;20458;-65
2023/08/25 02:11:28;;;;;;;0.00;0.00;;;;;;;28.36;60.42;100956.75;5052116;28;20366;-65
2023/08/25 02:13:54;;;;;;;0.00;0.00;;;;;;;28.17;60.96;100954.47;5052548;28;20032;-65
2023/08/25 02:16:19;;;;;;;0.00;0.00;;;;;;;28.38;60.48;100946.94;5052464;28;20060;-65
2023/08/25 02:18:44;;;;;;;0.00;0.00;;;;;;;28.07;61.49;100951.34;5052324;28;20029;-66
2023/08/25 02:21:10;;;;;;;0.00;0.00;;;;;;;28.24;61.04;100949.22;5052387;28;20090;-66
2023/08/25 02:23:35;;;;;;;0.00;0.00;;;;;;;28.17;61.05;100957.25;5051891;28;20068;-65
2023/08/25 02:26:00;;;;;;;0.00;0.00;;;;;;;28.26;60.30;100948.88;5051907;28;20033;-65
2023/08/25 02:28:26;;;;;;;0.00;0.00;;;;;;;28.14;60.40;100946.88;5052677;28;20512;-66
2023/08/25 02:30:51;;;;;;;0.00;0.00;;;;;;;28.25;59.82;100950.00;5063770;28;20048;-65
2023/08/25 02:33:17;;;;;;;0.00;0.00;;;;;;;28.11;61.35;100942.03;5069434;28;20052;-66
2023/08/25 02:35:42;;;;;;;0.00;0.00;;;;;;;28.05;61.17;100942.59;5052083;28;20037;-66
2023/08/25 02:38:10;;;;;;;0.00;0.00;;;;;;;28.16;60.75;100946.53;5051811;28;20056;-65
2023/08/25 02:40:37;;;;;;;0.00;0.00;;;;;;;28.22;61.38;100939.66;5032400;28;20100;-65
2023/08/25 02:43:04;;;;;;;0.00;0.00;;;;;;;28.13;60.64;100930.63;5032034;28;20033;-66
2023/08/25 02:45:30;;;;;;;0.00;0.00;;;;;;;28.19;60.57;100924.53;5065424;28;20033;-66
2023/08/25 02:47:56;;;;;;;0.00;0.00;;;;;;;28.16;60.30;100916.13;5071820;28;20047;-66
2023/08/25 02:50:22;;;;;;;0.00;0.00;;;;;;;28.04;61.17;100903.09;5071831;28;20056;-66
2023/08/25 02:52:48;;;;;;;0.00;0.00;;;;;;;28.00;60.86;100906.88;5072172;28;20516;-65
2023/08/25 02:55:19;;;;;;;0.00;0.00;;;;;;;27.99;60.71;100902.50;5071572;28;20032;-65
2023/08/25 02:57:45;;;;;;;0.00;0.00;;;;;;;27.95;60.57;100898.78;5071086;28;20040;-64
2023/08/25 03:00:13;;;;;;;0.00;0.00;;;;;;;27.94;60.56;100897.94;5059935;28;20045;-65
2023/08/25 03:02:39;;;;;;;0.00;0.00;;;;;;;27.87;60.51;100900.47;5051471;28;20563;-65
2023/08/25 03:05:05;;;;;;;0.00;0.00;;;;;;;27.81;60.78;100904.59;5051230;28;20025;-65
2023/08/25 03:07:30;;;;;;;0.00;0.00;;;;;;;27.63;60.54;100898.41;5033420;28;20025;-65
2023/08/25 03:09:56;;;;;;;0.00;0.00;;;;;;;27.60;61.53;100901.00;5050200;28;20060;-65
2023/08/25 03:12:21;;;;;;;0.00;0.00;;;;;;;27.71;60.89;100896.72;5050338;28;20033;-65
2023/08/25 03:14:47;;;;;;;0.00;0.00;;;;;;;27.73;61.01;100895.22;5050196;28;20025;-65
2023/08/25 03:17:12;;;;;;;0.00;0.00;;;;;;;27.75;61.14;100884.63;5050284;28;20040;-66
2023/08/25 03:19:38;;;;;;;0.00;0.00;;;;;;;27.69;61.67;100882.44;5050852;28;20043;-65
2023/08/25 03:22:04;;;;;;;0.00;0.00;;;;;;;27.67;61.97;100877.25;5050063;28;20052;-66
2023/08/25 03:24:29;;;;;;;0.00;0.00;;;;;;;27.85;60.73;100879.84;5049284;28;20037;-65
2023/08/25 03:26:57;;;;;;;0.00;0.00;;;;;;;27.66;61.54;100883.09;5060106;28;20035;-66
2023/08/25 03:29:23;;;;;;;0.00;0.00;;;;;;;27.49;62.17;100880.47;5070139;28;20040;-64
2023/08/25 03:31:49;;;;;;;0.00;0.00;;;;;;;27.68;61.22;100881.63;5070358;28;20047;-66
2023/08/25 03:34:14;;;;;;;0.00;0.00;;;;;;;27.64;61.84;100874.34;5069383;28;20035;-65
2023/08/25 03:36:39;;;;;;;0.00;0.00;;;;;;;27.74;61.33;100873.94;5049972;28;20043;-65
2023/08/25 03:39:05;;;;;;;0.00;0.00;;;;;;;27.74;61.39;100865.63;5049958;28;20048;-65
2023/08/25 03:41:31;;;;;;;0.00;0.00;;;;;;;27.56;61.83;100861.41;5050255;28;20405;-65
2023/08/25 03:43:56;;;;;;;0.00;0.00;;;;;;;27.59;61.23;100860.75;5052185;28;20021;-66
2023/08/25 03:46:21;;;;;;;0.00;0.00;;;;;;;27.56;61.57;100856.72;5069742;28;20503;-65
2023/08/25 03:48:47;;;;;;;0.00;0.00;;;;;;;27.60;62.33;100860.41;5070443;28;20098;-66
2023/08/25 03:51:12;;;;;;;0.00;0.00;;;;;;;27.67;61.67;100862.63;5070578;28;20048;-66
2023/08/25 03:53:38;;;;;;;0.00;0.00;;;;;;;27.77;61.58;100856.69;5070390;28;20033;-66
2023/08/25 03:56:04;;;;;;;0.00;0.00;;;;;;;27.60;61.79;100865.13;5070244;28;20028;-66
2023/08/25 03:58:29;;;;;;;0.00;0.00;;;;;;;27.66;61.36;100856.28;5070848;28;20024;-66
2023/08/25 04:00:55;;;;;;;0.00;0.00;;;;;;;27.52;62.67;100854.94;5051615;28;20373;-66
2023/08/25 04:03:21;;;;;;;0.00;0.00;;;;;;;27.57;62.23;100863.84;5030410;28;20110;-65
2023/08/25 04:05:46;;;;;;;0.00;0.00;;;;;;;27.73;61.25;100853.78;5033630;28;20585;-67
2023/08/25 04:08:12;;;;;;;0.00;0.00;;;;;;;27.43;62.45;100860.56;5041738;28;20032;-66
2023/08/25 04:10:37;;;;;;;0.00;0.00;;;;;;;27.49;61.97;100858.41;5039495;28;20083;-67
2023/08/25 04:13:03;;;;;;;0.00;0.00;;;;;;;27.46;61.95;100854.34;5046545;28;20459;-65
2023/08/25 04:15:29;;;;;;;0.00;0.00;;;;;;;27.37;62.81;100855.56;5049461;28;20114;-66
2023/08/25 04:17:54;;;;;;;0.00;0.00;;;;;;;27.26;63.66;100859.84;5049139;28;20457;-66
2023/08/25 04:20:19;;;;;;;0.00;0.00;;;;;;;27.53;62.31;100862.91;5050221;28;20040;-65
2023/08/25 04:22:45;;;;;;;0.00;0.00;;;;;;;27.23;62.79;100871.56;5056965;28;20041;-65
2023/08/25 04:25:10;;;;;;;0.00;0.00;;;;;;;27.33;63.40;100858.19;5069942;28;20127;-66
2023/08/25 04:27:36;;;;;;;0.00;0.00;;;;;;;27.32;63.47;100855.75;5051704;28;20086;-67
2023/08/25 04:30:02;;;;;;;0.00;0.00;;;;;;;27.31;62.66;100857.69;5069793;28;20033;-67
2023/08/25 04:32:28;;;;;;;0.00;0.00;;;;;;;27.31;63.30;100863.22;5035205;28;20032;-65
2023/08/25 04:34:54;;;;;;;0.00;0.00;;;;;;;27.48;62.32;100845.72;5050149;28;20025;-66
2023/08/25 04:37:19;;;;;;;0.00;0.00;;;;;;;27.37;62.75;100847.28;5049743;28;20219;-65
2023/08/25 04:39:44;;;;;;;0.00;0.00;;;;;;;27.39;62.59;100847.75;5048818;28;20029;-66
2023/08/25 04:42:10;;;;;;;0.00;0.00;;;;;;;27.53;61.51;100845.53;5028213;28;20060;-67
2023/08/25 04:44:35;;;;;;;0.00;0.00;;;;;;;27.49;62.06;100842.66;5032857;28;20037;-66
2023/08/25 04:47:02;;;;;;;0.00;0.00;;;;;;;27.48;61.49;100838.25;5030817;28;20033;-66
2023/08/25 04:49:28;;;;;;;0.00;0.00;;;;;;;27.37;61.82;100837.06;5049531;28;20096;-66
2023/08/25 04:51:53;;;;;;;0.00;0.00;;;;;;;27.40;61.61;100843.88;5049177;28;20389;-66
2023/08/25 04:54:18;;;;;;;0.00;0.00;;;;;;;27.45;61.78;100841.72;5048984;28;20044;-65
2023/08/25 04:56:44;;;;;;;0.00;0.00;;;;;;;27.30;61.69;100847.78;5049117;28;20457;-67
2023/08/25 04:59:09;;;;;;;0.00;0.00;;;;;;;27.32;61.77;100850.22;5056243;28;20544;-65
2023/08/25 05:01:35;;;;;;;0.00;0.00;;;;;;;27.25;62.69;100850.75;5049576;28;20029;-67
2023/08/25 05:04:00;;;;;;;0.00;0.00;;;;;;;27.57;61.63;100852.81;5048982;28;20087;-66
2023/08/25 05:06:26;;;;;;;0.00;0.00;;;;;;;27.40;62.55;100855.69;5048981;28;20048;-67
2023/08/25 05:08:51;;;;;;;0.00;0.00;;;;;;;27.69;61.54;100860.34;5049453;28;20051;-66
2023/08/25 05:11:16;;;;;;;0.00;0.00;;;;;;;27.85;60.93;100855.81;5049062;28;20346;-66
2023/08/25 05:13:42;;;;;;;0.00;0.00;;;;;;;27.64;61.88;100855.00;5064418;28;20037;-67
2023/08/25 05:16:08;;;;;;;0.00;0.00;;;;;;;27.65;62.30;100859.41;5049100;28;20041;-66
2023/08/25 05:18:34;;;;;;;0.00;0.00;;;;;;;27.80;62.39;100851.28;5050029;28;20044;-65
2023/08/25 05:21:00;;;;;;;0.00;0.00;;;;;;;27.80;61.63;100864.28;5049286;28;20052;-66
2023/08/25 05:23:25;;;;;;;0.00;0.00;;;;;;;27.82;61.85;100853.72;5048900;28;20128;-65
2023/08/25 05:25:51;;;;;;;0.00;0.00;;;;;;;27.80;61.54;100854.06;5049141;28;20104;-66
2023/08/25 05:28:16;;;;;;;0.00;0.00;;;;;;;27.91;61.92;100851.66;5048742;28;20040;-66
2023/08/25 05:30:51;;;;;;;0.00;0.00;;;;;;;27.91;61.94;100853.63;5031010;28;20415;-66
2023/08/25 05:33:16;;;;;;;0.00;0.00;;;;;;;27.53;63.82;100846.34;5049249;28;20489;-66
2023/08/25 05:35:42;;;;;;;0.00;0.00;;;;;;;27.90;62.30;100844.53;5049264;28;20036;-67
2023/08/25 05:38:07;;;;;;;0.00;0.00;;;;;;;27.93;62.35;100845.81;5049175;28;20044;-66
2023/08/25 05:40:32;;;;;;;0.00;0.00;;;;;;;27.83;62.63;100847.84;5049569;28;20036;-66
2023/08/25 05:42:58;;;;;;;0.00;0.00;;;;;;;27.97;61.82;100846.78;5049058;28;20048;-66
2023/08/25 05:45:23;;;;;;;0.00;0.00;;;;;;;28.04;62.25;100855.28;5055406;28;20037;-66
2023/08/25 05:47:49;;;;;;;0.00;0.00;;;;;;;28.05;62.34;100854.94;5064990;28;20630;-66
2023/08/25 05:50:14;;;;;;;0.00;0.00;;;;;;;28.02;62.22;100857.59;5059074;28;20040;-66
2023/08/25 05:52:41;;;;;;;0.00;0.00;;;;;;;28.01;61.99;100858.75;5042508;28;20040;-66
2023/08/25 05:55:07;;;;;;;0.00;0.00;;;;;;;28.13;62.18;100854.06;5040557;28;20412;-66
2023/08/25 05:57:33;;;;;;;0.00;0.00;;;;;;;28.16;62.09;100852.56;5051947;28;20060;-66
2023/08/25 05:59:58;;;;;;;0.00;0.00;;;;;;;28.13;61.97;100856.81;5034197;28;20061;-65
2023/08/25 06:02:24;;;;;;;0.00;0.00;;;;;;;28.17;62.01;100837.59;5052614;28;20501;-65
2023/08/25 06:04:49;;;;;;;0.00;0.00;;;;;;;28.22;61.46;100842.91;5052336;28;20480;-66
2023/08/25 06:07:14;;;;;;;0.00;0.00;;;;;;;28.31;61.91;100841.66;5052051;28;20045;-66
2023/08/25 06:09:40;;;;;;;0.00;0.00;;;;;;;28.27;62.25;100848.19;5052334;28;20037;-66
2023/08/25 06:12:06;;;;;;;0.00;0.00;;;;;;;28.39;61.36;100839.94;5052211;28;20505;-66
2023/08/25 06:14:32;;;;;;;0.00;0.00;;;;;;;28.48;61.20;100840.66;5053159;28;20101;-66
2023/08/25 06:17:01;;;;;;;0.00;0.00;;;;;;;28.48;61.30;100837.88;5056628;28;20029;-66
2023/08/25 06:19:26;;;;;;;0.00;0.00;;;;;;;28.37;61.41;100845.00;5052486;28;20048;-66
2023/08/25 06:21:51;;;;;;;0.00;0.00;;;;;;;28.40;61.99;100838.78;5051893;28;20072;-64
2023/08/25 06:24:17;;;;;;;0.00;0.00;;;;;;;28.52;61.52;100842.34;5027375;28;20492;-65
2023/08/25 06:26:42;;;;;;;0.00;0.00;;;;;;;28.60;60.89;100832.34;5051941;28;20062;-67
2023/08/25 06:29:08;;;;;;;0.00;0.00;;;;;;;28.58;61.29;100829.13;5052099;28;20021;-66
2023/08/25 06:31:33;;;;;;;0.00;0.00;;;;;;;28.58;60.82;100813.34;5052614;28;20086;-66
2023/08/25 06:34:02;;;;;;;0.00;0.00;;;;;;;28.71;60.71;100808.63;5052068;28;20036;-66
2023/08/25 06:36:29;;;;;;;0.00;0.00;;;;;;;28.68;61.00;100805.75;5051761;28;20112;-67
2023/08/25 06:38:55;;;;;;;0.00;0.00;;;;;;;28.75;61.06;100814.28;5051643;28;20033;-67
2023/08/25 06:41:20;;;;;;;0.00;0.00;;;;;;;28.85;60.89;100806.31;5051379;28;20025;-66
2023/08/25 06:43:45;;;;;;;0.00;0.00;;;;;;;28.81;60.67;100810.94;5052186;28;20029;-66
2023/08/25 06:46:11;;;;;;;0.00;0.00;;;;;;;28.85;61.06;100811.03;5071534;28;20102;-65
2023/08/25 06:48:37;;;;;;;0.00;0.00;;;;;;;28.97;60.55;100811.00;5071813;28;20037;-66
2023/08/25 06:51:02;;;;;;;0.00;0.00;;;;;;;28.97;60.81;100816.56;5071602;28;20113;-66
2023/08/25 06:53:28;;;;;;;0.00;0.00;;;;;;;28.97;60.50;100827.63;5071661;28;20127;-66
2023/08/25 06:55:53;;;;;;;0.00;0.00;;;;;;;28.95;60.05;100818.84;5072151;28;20432;-65
2023/08/25 06:58:19;;;;;;;0.00;0.00;;;;;;;29.13;60.41;100820.22;5071245;28;20068;-67
2023/08/25 07:00:44;;;;;;;0.00;0.00;;;;;;;29.01;60.83;100818.25;5071318;28;20811;-66
2023/08/25 07:03:09;;;;;;;0.00;0.00;;;;;;;29.17;60.15;100815.63;5068308;28;20025;-66
2023/08/25 07:05:38;;;;;;;0.00;0.00;;;;;;;29.17;60.16;100826.69;5051322;28;20048;-66
2023/08/25 07:08:07;;;;;;;0.00;0.00;;;;;;;29.21;59.81;100816.50;5051116;28;20029;-66
2023/08/25 07:10:32;;;;;;;0.00;0.00;;;;;;;29.09;60.69;100825.63;5051675;28;20036;-65
2023/08/25 07:12:58;;;;;;;0.00;0.00;;;;;;;29.26;60.08;100814.31;5069819;28;20040;-66
2023/08/25 07:15:23;;;;;;;0.00;0.00;;;;;;;28.98;59.96;100802.34;5067937;28;20162;-65
2023/08/25 07:17:48;;;;;;;0.00;0.00;;;;;;;29.17;59.56;100808.09;5051229;28;20473;-66
2023/08/25 07:20:14;;;;;;;0.00;0.00;;;;;;;28.19;63.92;100808.47;5051179;28;20024;-66
2023/08/25 07:22:40;;;;;;;0.00;0.00;;;;;;;28.76;62.04;100813.09;5051318;28;20049;-66
2023/08/25 07:25:06;;;;;;;0.00;0.00;;;;;;;29.18;60.40;100811.69;5051037;28;20033;-67
2023/08/25 07:27:32;;;;;;;0.00;0.00;;;;;;;28.72;61.73;100817.75;5051014;28;20194;-65
2023/08/25 07:29:58;;;;;;;0.00;0.00;;;;;;;28.82;61.77;100826.34;5050864;28;20025;-66
2023/08/25 07:32:24;;;;;;;0.00;0.00;;;;;;;29.11;60.35;100817.78;5050985;28;20037;-66
2023/08/25 07:34:49;;;;;;;0.00;0.00;;;;;;;29.28;60.36;100814.78;5051571;28;20079;-66
2023/08/25 07:37:15;;;;;;;0.00;0.00;;;;;;;29.69;59.26;100812.75;5050730;28;20037;-66
2023/08/25 07:39:41;;;;;;;0.00;0.00;;;;;;;29.62;58.91;100805.03;5050550;28;20601;-66
2023/08/25 07:42:09;;;;;;;0.00;0.00;;;;;;;29.68;59.10;100805.63;5050697;28;20064;-67
2023/08/25 07:44:37;;;;;;;0.00;0.00;;;;;;;29.74;59.23;100799.47;5057514;28;20029;-66
2023/08/25 07:47:04;;;;;;;0.00;0.00;;;;;;;29.91;58.62;100809.44;5070417;28;20427;-66
2023/08/25 07:49:30;;;;;;;0.00;0.00;;;;;;;29.97;58.51;100799.69;5071003;28;20043;-66
2023/08/25 07:51:55;;;;;;;0.00;0.00;;;;;;;30.15;58.40;100798.19;5070306;28;20032;-65
2023/08/25 07:54:20;;;;;;;0.00;0.00;;;;;;;30.20;57.97;100804.28;5070329;28;20489;-65
2023/08/25 07:56:46;;;;;;;0.00;0.00;;;;;;;30.28;58.06;100811.66;5070423;28;20024;-64
2023/08/25 07:59:11;;;;;;;0.00;0.00;;;;;;;30.28;57.33;100806.09;5069074;28;20032;-65
2023/08/25 08:01:37;;;;;;;0.00;0.00;;;;;;;30.37;57.52;100796.78;5050723;28;20025;-65
2023/08/25 08:04:03;;;;;;;0.00;0.00;;;;;;;30.48;56.65;100800.63;5050268;28;20036;-65
2023/08/25 08:06:29;;;;;;;0.00;0.00;;;;;;;30.49;57.16;100810.53;5050319;28;20493;-67
2023/08/25 08:08:54;;;;;;;0.00;0.00;;;;;;;30.44;57.35;100810.81;5032038;28;20049;-66
2023/08/25 08:11:19;;;;;;;0.00;0.00;;;;;;;30.42;57.03;100805.63;5049490;28;20041;-67
2023/08/25 08:13:45;;;;;;;0.00;0.00;;;;;;;30.44;56.75;100819.16;5050680;28;20029;-66
2023/08/25 08:16:11;;;;;;;0.00;0.00;;;;;;;30.49;56.77;100816.09;5049883;28;20057;-67
2023/08/25 08:18:36;;;;;;;0.00;0.00;;;;;;;29.99;57.31;100811.25;5049947;28;20049;-67
2023/08/25 08:21:01;;;;;;;0.00;0.00;;;;;;;30.31;56.35;100804.56;5049928;28;20464;-66
2023/08/25 08:23:27;;;;;;;0.00;0.00;;;;;;;30.33;56.50;100793.91;5049788;28;20044;-67
2023/08/25 08:25:54;;;;;;;0.00;0.00;;;;;;;30.49;56.19;100791.94;5050295;28;20497;-66
2023/08/25 08:28:19;;;;;;;0.00;0.00;;;;;;;30.38;56.55;100792.84;5049778;28;20041;-67
2023/08/25 08:30:45;;;;;;;0.00;0.00;;;;;;;30.43;56.58;100800.91;5049993;28;20032;-66
2023/08/25 08:33:10;;;;;;;0.00;0.00;;;;;;;30.63;56.15;100805.34;5065173;28;20029;-67
2023/08/25 08:35:36;;;;;;;0.00;0.00;;;;;;;30.82;55.36;100805.41;5049998;28;20473;-67
2023/08/25 08:38:01;;;;;;;0.00;0.00;;;;;;;30.75;55.89;100825.47;5049644;28;20461;-67
2023/08/25 08:40:31;;;;;;;0.00;0.00;;;;;;;30.69;55.60;100818.56;5047246;28;20504;-67
2023/08/25 08:43:01;;;;;;;0.00;0.00;;;;;;;30.23;58.01;100811.09;5051510;28;20033;-66
2023/08/25 08:45:32;;;;;;;0.00;0.00;;;;;;;30.22;57.25;100806.69;5063718;28;20105;-67
2023/08/25 08:48:00;;;;;;;0.00;0.00;;;;;;;30.15;57.35;100807.31;5061453;28;20531;-66
2023/08/25 08:50:25;;;;;;;0.00;0.00;;;;;;;30.58;56.13;100808.41;5069453;28;20125;-66
2023/08/25 08:52:51;;;;;;;0.00;0.00;;;;;;;30.63;55.48;100822.78;5069789;28;20420;-66
2023/08/25 08:55:16;;;;;;;0.00;0.00;;;;;;;30.76;54.87;100831.81;5050425;28;20036;-67
2023/08/25 08:57:43;;;;;;;0.00;0.00;;;;;;;30.75;54.83;100835.75;5049236;28;20045;-67
2023/08/25 09:00:12;;;;;;;0.00;0.00;;;;;;;30.57;55.45;100834.50;5059531;28;20040;-66
2023/08/25 09:02:39;;;;;;;0.00;0.00;;;;;;;30.67;54.70;100828.41;5069343;28;20036;-65
2023/08/25 09:05:05;;;;;;;0.00;0.00;;;;;;;29.79;57.93;100835.25;5050593;28;20481;-66
2023/08/25 09:07:33;;;;;;;0.00;0.00;;;;;;;30.30;56.82;100837.06;5069961;28;20016;-67
2023/08/25 09:09:59;;;;;;;0.00;0.00;;;;;;;30.49;56.39;100833.53;5047281;28;20033;-67
2023/08/25 09:12:25;;;;;;;0.00;0.00;;;;;;;30.37;56.90;100841.94;5048984;28;20033;-67
2023/08/25 09:14:50;;;;;;;0.00;0.00;;;;;;;30.08;57.30;100847.91;5049281;28;20025;-67
2023/08/25 09:17:16;;;;;;;0.00;0.00;;;;;;;30.30;56.92;100850.91;5063834;28;20071;-66
2023/08/25 09:19:41;;;;;;;0.00;0.00;;;;;;;30.39;56.72;100847.16;5049863;28;20049;-67
2023/08/25 09:22:11;;;;;;;0.00;0.00;;;;;;;30.01;57.24;100844.94;5049468;28;20501;-66
2023/08/25 09:24:38;;;;;;;0.00;0.00;;;;;;;30.24;56.15;100848.72;5053038;28;20048;-66
2023/08/25 09:27:04;;;;;;;0.00;0.00;;;;;;;30.34;55.77;100842.69;5053113;28;20244;-66
2023/08/25 09:29:42;;;;;;;0.00;0.00;;;;;;;30.40;56.20;100843.22;5053079;28;20033;-66
2023/08/25 09:32:14;;;;;;;0.00;0.00;;;;;;;30.31;56.56;100835.88;5052619;28;20032;-66
2023/08/25 09:34:39;;;;;;;0.00;0.00;;;;;;;30.32;56.69;100842.22;5055282;28;20419;-65
2023/08/25 09:37:04;;;;;;;0.00;0.00;;;;;;;30.16;57.54;100842.19;5072651;28;20040;-67
2023/08/25 09:39:42;;;;;;;0.00;0.00;;;;;;;30.29;57.76;100835.41;5072694;28;20496;-67
2023/08/25 09:42:08;;;;;;;0.00;0.00;;;;;;;29.96;58.66;100834.09;5032336;28;20791;-66
2023/08/25 09:44:33;;;;;;;0.00;0.00;;;;;;;30.01;58.89;100837.44;5050959;28;20059;-67
2023/08/25 09:46:59;;;;;;;0.00;0.00;;;;;;;29.90;59.69;100847.41;5073164;28;20021;-66
2023/08/25 09:49:24;;;;;;;0.00;0.00;;;;;;;29.98;58.69;100845.66;5072754;28;20048;-67
2023/08/25 09:51:51;;;;;;;0.00;0.00;;;;;;;30.05;59.29;100845.84;5072163;28;20425;-66
2023/08/25 09:54:18;;;;;;;0.00;0.00;;;;;;;30.12;59.34;100846.03;5054130;28;20039;-66
2023/08/25 09:56:46;;;;;;;0.00;0.00;;;;;;;30.09;59.46;100853.06;5060501;28;20098;-66
2023/08/25 09:59:13;;;;;;;0.00;0.00;;;;;;;30.12;59.46;100854.34;5052151;28;20092;-66
2023/08/25 10:01:40;;;;;;;0.00;0.00;;;;;;;30.00;59.61;100844.13;5067338;28;20020;-66
2023/08/25 10:04:06;;;;;;;0.00;0.00;;;;;;;29.96;59.93;100840.47;5071300;28;20035;-66
2023/08/25 10:06:33;;;;;;;0.00;0.00;;;;;;;29.88;60.90;100854.47;5071269;28;20040;-66
2023/08/25 10:08:59;;;;;;;0.00;0.00;;;;;;;29.98;60.12;100852.00;5044100;28;20052;-66
2023/08/25 10:11:30;;;;;;;0.00;0.00;;;;;;;29.90;60.79;100854.91;5050744;28;20045;-68
2023/08/25 10:13:56;;;;;;;0.00;0.00;;;;;;;29.89;61.03;100856.09;5051641;28;20033;-67
2023/08/25 10:16:25;;;;;;;0.00;0.00;;;;;;;29.87;61.07;100853.69;5044975;28;20090;-67
2023/08/25 10:18:54;;;;;;;0.00;0.00;;;;;;;29.97;60.17;100841.28;5051238;28;20037;-67
2023/08/25 10:21:20;;;;;;;0.00;0.00;;;;;;;29.73;61.43;100839.44;5050611;28;20029;-67
2023/08/25 10:23:48;;;;;;;0.00;0.00;;;;;;;29.81;61.47;100840.44;5050755;28;20062;-66
2023/08/25 10:26:15;;;;;;;0.00;0.00;;;;;;;30.08;61.60;100842.34;5050873;28;20040;-67
2023/08/25 10:28:40;;;;;;;0.00;0.00;;;;;;;29.97;61.35;100838.50;5051303;28;20029;-67
2023/08/25 10:31:07;;;;;;;0.00;0.00;;;;;;;29.99;61.06;100839.78;5049963;28;20036;-67
2023/08/25 10:33:49;;;;;;;0.00;0.00;;;;;;;29.92;61.94;100842.31;5032080;28;20040;-66
2023/08/25 10:36:19;;;;;;;0.00;0.00;;;;;;;29.92;61.41;100835.97;5065869;28;20040;-66
2023/08/25 10:38:47;;;;;;;0.00;0.00;;;;;;;29.84;61.53;100828.63;5071192;28;20558;-67
2023/08/25 10:41:17;;;;;;;0.00;0.00;;;;;;;29.96;61.82;100829.38;5058054;28;20017;-66
2023/08/25 10:43:49;;;;;;;0.00;0.00;;;;;;;30.10;61.32;100832.53;5051887;28;20036;-67
2023/08/25 10:46:17;;;;;;;0.00;0.00;;;;;;;30.28;61.29;100824.69;5050062;28;20124;-67
2023/08/25 10:48:43;;;;;;;0.00;0.00;;;;;;;30.44;60.98;100827.47;5067865;28;20115;-67
2023/08/25 10:51:16;;;;;;;0.00;0.00;;;;;;;30.69;59.98;100823.31;5071512;28;20054;-67
2023/08/25 10:53:52;;;;;;;0.00;0.00;;;;;;;30.75;60.46;100819.09;5071440;28;20449;-66
2023/08/25 10:56:17;;;;;;;0.00;0.00;;;;;;;30.77;59.06;100811.22;5067716;28;20016;-66
2023/08/25 10:58:53;;;;;;;0.00;0.00;;;;;;;30.66;59.76;100808.22;5071524;28;20031;-66
2023/08/25 11:01:19;;;;;;;0.00;0.00;;;;;;;30.84;59.37;100811.44;5052628;28;20037;-67
2023/08/25 11:03:45;;;;;;;0.00;0.00;;;;;;;30.51;59.78;100799.88;5070983;28;20573;-66
2023/08/25 11:06:49;;;;;;;0.00;0.00;;;;;;;31.08;58.43;100802.84;5054570;28;20048;-67
2023/08/25 11:09:17;;;;;;;0.00;0.00;;;;;;;31.43;58.21;100786.94;5051258;28;20048;-65
2023/08/25 11:11:43;;;;;;;0.00;0.00;;;;;;;31.36;57.99;100778.44;5050552;28;20650;-66
2023/08/25 11:14:09;;;;;;;0.00;0.00;;;;;;;31.51;58.16;100796.25;5042830;28;20025;-65
2023/08/25 11:16:39;;;;;;;0.00;0.00;;;;;;;31.79;58.16;100796.78;5045776;28;20025;-66
2023/08/25 11:19:05;;;;;;;0.00;0.00;;;;;;;31.74;57.33;100799.88;5033065;28;20179;-66
2023/08/25 11:21:30;;;;;;;0.00;0.00;;;;;;;31.86;56.09;100794.91;5050609;28;20025;-65